sensor_id;sensor_type;location;lat;lon;timestamp;P1;durP1;ratioP1;P2;durP2;ratioP2
58015;SDS011;43809;52.110;20.964;2023-05-14T00:02:34;8.05;;;5.70;;
58015;SDS011;43809;52.110;20.964;2023-05-14T00:04:34;6.43;;;4.97;;
58015;SDS011;43809;52.110;20.964;2023-05-14T00:06:35;6.88;;;5.53;;
58015;SDS011;43809;52.110;20.964;2023-05-14T00:08:35;8.43;;;7.07;;
58015;SDS011;43809;52.110;20.964;2023-05-14T00:10:35;7.47;;;6.28;;
58015;SDS011;43809;52.110;20.964;2023-05-14T00:12:35;8.73;;;5.65;;
58015;SDS011;43809;52.110;20.964;2023-05-14T00:14:35;6.90;;;5.45;;
58015;SDS011;43809;52.110;20.964;2023-05-14T00:16:36;5.93;;;4.63;;
58015;SDS011;43809;52.110;20.964;2023-05-14T00:18:36;7.55;;;4.70;;
58015;SDS011;43809;52.110;20.964;2023-05-14T00:20:36;7.80;;;5.18;;
58015;SDS011;43809;52.110;20.964;2023-05-14T00:22:37;12.88;;;7.93;;
58015;SDS011;43809;52.110;20.964;2023-05-14T00:24:37;10.45;;;7.95;;
58015;SDS011;43809;52.110;20.964;2023-05-14T00:26:37;7.43;;;6.20;;
58015;SDS011;43809;52.110;20.964;2023-05-14T00:28:38;7.47;;;5.30;;
58015;SDS011;43809;52.110;20.964;2023-05-14T00:30:38;5.38;;;4.15;;
58015;SDS011;43809;52.110;20.964;2023-05-14T00:32:38;3.83;;;3.42;;
58015;SDS011;43809;52.110;20.964;2023-05-14T00:34:39;4.43;;;3.67;;
58015;SDS011;43809;52.110;20.964;2023-05-14T00:36:39;5.32;;;3.75;;
58015;SDS011;43809;52.110;20.964;2023-05-14T00:38:39;4.93;;;3.50;;
58015;SDS011;43809;52.110;20.964;2023-05-14T00:40:39;5.03;;;3.42;;
58015;SDS011;43809;52.110;20.964;2023-05-14T00:45:21;3.40;;;2.90;;
58015;SDS011;43809;52.110;20.964;2023-05-14T00:47:21;3.17;;;2.63;;
58015;SDS011;43809;52.110;20.964;2023-05-14T00:49:22;3.03;;;2.47;;
58015;SDS011;43809;52.110;20.964;2023-05-14T00:53:49;2.97;;;2.50;;
58015;SDS011;43809;52.110;20.964;2023-05-14T00:55:50;2.63;;;2.30;;
58015;SDS011;43809;52.110;20.964;2023-05-14T01:00:28;4.90;;;3.88;;
58015;SDS011;43809;52.110;20.964;2023-05-14T01:02:28;5.45;;;4.10;;
58015;SDS011;43809;52.110;20.964;2023-05-14T01:04:28;4.50;;;3.58;;
58015;SDS011;43809;52.110;20.964;2023-05-14T01:11:09;4.30;;;2.90;;
58015;SDS011;43809;52.110;20.964;2023-05-14T01:15:37;4.35;;;2.75;;
58015;SDS011;43809;52.110;20.964;2023-05-14T01:17:42;2.83;;;2.42;;
58015;SDS011;43809;52.110;20.964;2023-05-14T01:19:45;3.65;;;2.85;;
58015;SDS011;43809;52.110;20.964;2023-05-14T01:21:46;2.57;;;2.37;;
58015;SDS011;43809;52.110;20.964;2023-05-14T01:23:46;2.45;;;2.20;;
58015;SDS011;43809;52.110;20.964;2023-05-14T01:25:46;4.38;;;2.97;;
58015;SDS011;43809;52.110;20.964;2023-05-14T01:30:08;5.60;;;5.00;;
58015;SDS011;43809;52.110;20.964;2023-05-14T01:32:10;7.90;;;6.22;;
58015;SDS011;43809;52.110;20.964;2023-05-14T01:34:13;10.30;;;8.02;;
58015;SDS011;43809;52.110;20.964;2023-05-14T01:36:13;9.55;;;6.00;;
58015;SDS011;43809;52.110;20.964;2023-05-14T01:38:14;7.93;;;5.43;;
58015;SDS011;43809;52.110;20.964;2023-05-14T01:40:16;7.47;;;5.40;;
58015;SDS011;43809;52.110;20.964;2023-05-14T01:42:16;6.53;;;5.05;;
58015;SDS011;43809;52.110;20.964;2023-05-14T01:44:17;5.72;;;4.95;;
58015;SDS011;43809;52.110;20.964;2023-05-14T01:46:34;6.05;;;4.55;;
58015;SDS011;43809;52.110;20.964;2023-05-14T01:48:34;5.65;;;4.45;;
58015;SDS011;43809;52.110;20.964;2023-05-14T01:50:34;5.30;;;4.13;;
58015;SDS011;43809;52.110;20.964;2023-05-14T01:52:35;4.22;;;3.63;;
58015;SDS011;43809;52.110;20.964;2023-05-14T01:54:35;5.80;;;3.10;;
58015;SDS011;43809;52.110;20.964;2023-05-14T01:56:35;4.00;;;3.03;;
58015;SDS011;43809;52.110;20.964;2023-05-14T01:58:35;3.45;;;2.80;;
58015;SDS011;43809;52.110;20.964;2023-05-14T02:00:35;3.35;;;2.67;;
58015;SDS011;43809;52.110;20.964;2023-05-14T02:04:41;6.00;;;3.70;;
58015;SDS011;43809;52.110;20.964;2023-05-14T02:06:41;4.72;;;3.60;;
58015;SDS011;43809;52.110;20.964;2023-05-14T02:08:44;4.55;;;3.50;;
58015;SDS011;43809;52.110;20.964;2023-05-14T02:10:58;4.22;;;3.25;;
58015;SDS011;43809;52.110;20.964;2023-05-14T02:12:58;4.45;;;3.40;;
58015;SDS011;43809;52.110;20.964;2023-05-14T02:14:58;3.53;;;2.78;;
58015;SDS011;43809;52.110;20.964;2023-05-14T02:16:58;4.30;;;3.20;;
58015;SDS011;43809;52.110;20.964;2023-05-14T02:18:58;3.85;;;2.92;;
58015;SDS011;43809;52.110;20.964;2023-05-14T02:25:22;6.25;;;4.20;;
58015;SDS011;43809;52.110;20.964;2023-05-14T02:27:22;4.93;;;3.65;;
58015;SDS011;43809;52.110;20.964;2023-05-14T02:29:22;4.22;;;3.40;;
58015;SDS011;43809;52.110;20.964;2023-05-14T02:31:23;4.38;;;3.50;;
58015;SDS011;43809;52.110;20.964;2023-05-14T02:33:23;5.95;;;3.85;;
58015;SDS011;43809;52.110;20.964;2023-05-14T02:35:23;5.53;;;3.72;;
58015;SDS011;43809;52.110;20.964;2023-05-14T02:37:23;5.40;;;4.30;;
58015;SDS011;43809;52.110;20.964;2023-05-14T02:39:23;5.72;;;4.63;;
58015;SDS011;43809;52.110;20.964;2023-05-14T02:43:50;9.30;;;7.18;;
58015;SDS011;43809;52.110;20.964;2023-05-14T02:45:50;12.65;;;9.80;;
58015;SDS011;43809;52.110;20.964;2023-05-14T02:47:51;13.55;;;10.43;;
58015;SDS011;43809;52.110;20.964;2023-05-14T02:49:51;14.68;;;11.40;;
58015;SDS011;43809;52.110;20.964;2023-05-14T02:51:51;14.65;;;10.57;;
58015;SDS011;43809;52.110;20.964;2023-05-14T02:53:53;12.83;;;8.60;;
58015;SDS011;43809;52.110;20.964;2023-05-14T02:55:53;10.75;;;8.32;;
58015;SDS011;43809;52.110;20.964;2023-05-14T02:57:58;12.82;;;9.65;;
58015;SDS011;43809;52.110;20.964;2023-05-14T02:59:59;14.77;;;10.20;;
58015;SDS011;43809;52.110;20.964;2023-05-14T03:01:59;12.50;;;8.53;;
58015;SDS011;43809;52.110;20.964;2023-05-14T03:03:59;11.83;;;8.40;;
58015;SDS011;43809;52.110;20.964;2023-05-14T03:08:22;9.07;;;6.60;;
58015;SDS011;43809;52.110;20.964;2023-05-14T03:10:22;8.48;;;5.72;;
58015;SDS011;43809;52.110;20.964;2023-05-14T03:12:22;5.15;;;4.60;;
58015;SDS011;43809;52.110;20.964;2023-05-14T03:14:22;5.90;;;4.22;;
58015;SDS011;43809;52.110;20.964;2023-05-14T03:16:22;5.73;;;3.80;;
58015;SDS011;43809;52.110;20.964;2023-05-14T03:18:22;3.67;;;3.10;;
58015;SDS011;43809;52.110;20.964;2023-05-14T03:20:23;4.30;;;3.00;;
58015;SDS011;43809;52.110;20.964;2023-05-14T03:22:24;4.20;;;2.33;;
58015;SDS011;43809;52.110;20.964;2023-05-14T03:24:25;3.45;;;2.33;;
58015;SDS011;43809;52.110;20.964;2023-05-14T03:26:25;3.40;;;3.00;;
58015;SDS011;43809;52.110;20.964;2023-05-14T03:28:25;4.65;;;3.47;;
58015;SDS011;43809;52.110;20.964;2023-05-14T03:30:25;6.90;;;4.22;;
58015;SDS011;43809;52.110;20.964;2023-05-14T03:32:25;6.07;;;4.70;;
58015;SDS011;43809;52.110;20.964;2023-05-14T03:34:26;6.78;;;4.68;;
58015;SDS011;43809;52.110;20.964;2023-05-14T03:36:26;6.45;;;4.78;;
58015;SDS011;43809;52.110;20.964;2023-05-14T03:38:26;5.93;;;4.40;;
58015;SDS011;43809;52.110;20.964;2023-05-14T03:40:26;5.10;;;3.72;;
58015;SDS011;43809;52.110;20.964;2023-05-14T03:42:26;8.43;;;5.95;;
58015;SDS011;43809;52.110;20.964;2023-05-14T03:44:27;9.25;;;6.15;;
58015;SDS011;43809;52.110;20.964;2023-05-14T03:46:27;9.45;;;6.78;;
58015;SDS011;43809;52.110;20.964;2023-05-14T03:48:27;9.38;;;6.05;;
58015;SDS011;43809;52.110;20.964;2023-05-14T03:50:28;8.40;;;6.05;;
58015;SDS011;43809;52.110;20.964;2023-05-14T03:52:28;9.25;;;6.50;;
58015;SDS011;43809;52.110;20.964;2023-05-14T03:54:28;9.38;;;6.53;;
58015;SDS011;43809;52.110;20.964;2023-05-14T03:56:28;7.60;;;5.57;;
58015;SDS011;43809;52.110;20.964;2023-05-14T03:58:29;6.65;;;5.35;;
58015;SDS011;43809;52.110;20.964;2023-05-14T04:00:29;8.35;;;6.20;;
58015;SDS011;43809;52.110;20.964;2023-05-14T04:02:29;10.02;;;6.40;;
58015;SDS011;43809;52.110;20.964;2023-05-14T04:04:29;6.85;;;5.53;;
58015;SDS011;43809;52.110;20.964;2023-05-14T04:06:30;6.72;;;5.28;;
58015;SDS011;43809;52.110;20.964;2023-05-14T04:08:30;7.40;;;5.45;;
58015;SDS011;43809;52.110;20.964;2023-05-14T04:10:34;9.13;;;6.30;;
58015;SDS011;43809;52.110;20.964;2023-05-14T04:12:34;6.95;;;5.03;;
58015;SDS011;43809;52.110;20.964;2023-05-14T04:14:35;7.43;;;5.60;;
58015;SDS011;43809;52.110;20.964;2023-05-14T04:16:35;13.10;;;8.75;;
58015;SDS011;43809;52.110;20.964;2023-05-14T04:18:35;15.15;;;10.38;;
58015;SDS011;43809;52.110;20.964;2023-05-14T04:20:35;11.88;;;9.25;;
58015;SDS011;43809;52.110;20.964;2023-05-14T04:22:50;15.60;;;10.30;;
58015;SDS011;43809;52.110;20.964;2023-05-14T04:24:50;11.15;;;9.00;;
58015;SDS011;43809;52.110;20.964;2023-05-14T04:26:51;13.05;;;8.70;;
58015;SDS011;43809;52.110;20.964;2023-05-14T04:29:09;12.00;;;9.50;;
58015;SDS011;43809;52.110;20.964;2023-05-14T04:31:09;15.70;;;10.35;;
58015;SDS011;43809;52.110;20.964;2023-05-14T04:33:12;19.45;;;14.02;;
58015;SDS011;43809;52.110;20.964;2023-05-14T04:35:13;16.55;;;11.77;;
58015;SDS011;43809;52.110;20.964;2023-05-14T04:37:13;12.65;;;9.90;;
58015;SDS011;43809;52.110;20.964;2023-05-14T04:39:13;14.65;;;10.18;;
58015;SDS011;43809;52.110;20.964;2023-05-14T04:41:21;12.90;;;9.93;;
58015;SDS011;43809;52.110;20.964;2023-05-14T04:43:22;15.00;;;11.30;;
58015;SDS011;43809;52.110;20.964;2023-05-14T04:45:23;15.70;;;11.03;;
58015;SDS011;43809;52.110;20.964;2023-05-14T04:47:23;14.45;;;11.80;;
58015;SDS011;43809;52.110;20.964;2023-05-14T04:49:23;17.58;;;13.25;;
58015;SDS011;43809;52.110;20.964;2023-05-14T04:51:24;18.95;;;13.48;;
58015;SDS011;43809;52.110;20.964;2023-05-14T04:53:34;17.80;;;13.02;;
58015;SDS011;43809;52.110;20.964;2023-05-14T04:55:34;17.75;;;13.30;;
58015;SDS011;43809;52.110;20.964;2023-05-14T04:57:43;17.35;;;13.20;;
58015;SDS011;43809;52.110;20.964;2023-05-14T04:59:43;17.80;;;13.45;;
58015;SDS011;43809;52.110;20.964;2023-05-14T05:01:44;16.13;;;12.40;;
58015;SDS011;43809;52.110;20.964;2023-05-14T05:03:44;15.07;;;10.88;;
58015;SDS011;43809;52.110;20.964;2023-05-14T05:05:44;15.17;;;12.03;;
58015;SDS011;43809;52.110;20.964;2023-05-14T05:07:59;15.32;;;11.00;;
58015;SDS011;43809;52.110;20.964;2023-05-14T05:09:59;16.85;;;12.25;;
58015;SDS011;43809;52.110;20.964;2023-05-14T05:11:59;15.57;;;11.23;;
58015;SDS011;43809;52.110;20.964;2023-05-14T05:14:00;18.20;;;13.48;;
58015;SDS011;43809;52.110;20.964;2023-05-14T05:16:02;19.38;;;12.63;;
58015;SDS011;43809;52.110;20.964;2023-05-14T05:18:02;15.00;;;10.82;;
58015;SDS011;43809;52.110;20.964;2023-05-14T05:20:02;14.38;;;10.10;;
58015;SDS011;43809;52.110;20.964;2023-05-14T05:22:04;17.95;;;13.85;;
58015;SDS011;43809;52.110;20.964;2023-05-14T05:24:07;16.70;;;12.77;;
58015;SDS011;43809;52.110;20.964;2023-05-14T05:26:07;17.70;;;13.68;;
58015;SDS011;43809;52.110;20.964;2023-05-14T05:28:08;19.52;;;12.73;;
58015;SDS011;43809;52.110;20.964;2023-05-14T05:30:08;17.38;;;13.25;;
58015;SDS011;43809;52.110;20.964;2023-05-14T05:32:08;14.65;;;11.43;;
58015;SDS011;43809;52.110;20.964;2023-05-14T05:34:09;17.67;;;12.43;;
58015;SDS011;43809;52.110;20.964;2023-05-14T05:36:09;13.38;;;10.75;;
58015;SDS011;43809;52.110;20.964;2023-05-14T05:38:09;13.93;;;11.10;;
58015;SDS011;43809;52.110;20.964;2023-05-14T05:40:18;13.33;;;10.23;;
58015;SDS011;43809;52.110;20.964;2023-05-14T05:42:19;14.20;;;9.55;;
58015;SDS011;43809;52.110;20.964;2023-05-14T05:44:19;14.60;;;9.82;;
58015;SDS011;43809;52.110;20.964;2023-05-14T05:46:19;12.87;;;9.13;;
58015;SDS011;43809;52.110;20.964;2023-05-14T05:48:20;10.77;;;8.07;;
58015;SDS011;43809;52.110;20.964;2023-05-14T05:50:25;13.48;;;9.65;;
58015;SDS011;43809;52.110;20.964;2023-05-14T05:52:26;7.72;;;6.43;;
58015;SDS011;43809;52.110;20.964;2023-05-14T05:54:26;11.37;;;9.33;;
58015;SDS011;43809;52.110;20.964;2023-05-14T05:56:26;10.13;;;8.07;;
58015;SDS011;43809;52.110;20.964;2023-05-14T05:58:26;11.82;;;8.20;;
58015;SDS011;43809;52.110;20.964;2023-05-14T06:00:26;9.17;;;6.93;;
58015;SDS011;43809;52.110;20.964;2023-05-14T06:02:27;7.57;;;6.10;;
58015;SDS011;43809;52.110;20.964;2023-05-14T06:04:27;9.27;;;6.47;;
58015;SDS011;43809;52.110;20.964;2023-05-14T06:06:27;7.33;;;6.33;;
58015;SDS011;43809;52.110;20.964;2023-05-14T06:08:27;9.57;;;6.68;;
58015;SDS011;43809;52.110;20.964;2023-05-14T06:10:28;9.83;;;7.90;;
58015;SDS011;43809;52.110;20.964;2023-05-14T06:12:28;9.57;;;7.27;;
58015;SDS011;43809;52.110;20.964;2023-05-14T06:14:28;8.17;;;6.23;;
58015;SDS011;43809;52.110;20.964;2023-05-14T06:16:28;9.13;;;7.63;;
58015;SDS011;43809;52.110;20.964;2023-05-14T06:18:29;9.45;;;7.05;;
58015;SDS011;43809;52.110;20.964;2023-05-14T06:20:36;8.50;;;6.07;;
58015;SDS011;43809;52.110;20.964;2023-05-14T06:22:36;8.50;;;7.45;;
58015;SDS011;43809;52.110;20.964;2023-05-14T06:24:37;7.40;;;6.28;;
58015;SDS011;43809;52.110;20.964;2023-05-14T06:26:37;8.10;;;6.33;;
58015;SDS011;43809;52.110;20.964;2023-05-14T06:28:37;6.67;;;5.17;;
58015;SDS011;43809;52.110;20.964;2023-05-14T06:30:38;8.00;;;6.00;;
58015;SDS011;43809;52.110;20.964;2023-05-14T06:32:38;5.22;;;4.25;;
58015;SDS011;43809;52.110;20.964;2023-05-14T06:34:39;7.53;;;5.97;;
58015;SDS011;43809;52.110;20.964;2023-05-14T06:36:39;7.30;;;6.35;;
58015;SDS011;43809;52.110;20.964;2023-05-14T06:38:40;7.95;;;6.00;;
58015;SDS011;43809;52.110;20.964;2023-05-14T06:40:41;7.65;;;6.10;;
58015;SDS011;43809;52.110;20.964;2023-05-14T06:42:41;6.35;;;5.43;;
58015;SDS011;43809;52.110;20.964;2023-05-14T06:44:41;7.37;;;5.40;;
58015;SDS011;43809;52.110;20.964;2023-05-14T06:48:47;5.80;;;5.20;;
58015;SDS011;43809;52.110;20.964;2023-05-14T06:50:47;8.90;;;6.65;;
58015;SDS011;43809;52.110;20.964;2023-05-14T06:52:48;6.13;;;5.53;;
58015;SDS011;43809;52.110;20.964;2023-05-14T06:54:48;6.47;;;5.07;;
58015;SDS011;43809;52.110;20.964;2023-05-14T06:56:48;7.33;;;5.03;;
58015;SDS011;43809;52.110;20.964;2023-05-14T06:58:48;7.13;;;5.13;;
58015;SDS011;43809;52.110;20.964;2023-05-14T07:00:48;5.77;;;4.63;;
58015;SDS011;43809;52.110;20.964;2023-05-14T07:02:49;5.57;;;4.80;;
58015;SDS011;43809;52.110;20.964;2023-05-14T07:04:49;5.15;;;4.38;;
58015;SDS011;43809;52.110;20.964;2023-05-14T07:06:49;4.93;;;3.92;;
58015;SDS011;43809;52.110;20.964;2023-05-14T07:08:49;4.33;;;3.93;;
58015;SDS011;43809;52.110;20.964;2023-05-14T07:10:50;5.78;;;4.40;;
58015;SDS011;43809;52.110;20.964;2023-05-14T07:12:50;6.87;;;4.80;;
58015;SDS011;43809;52.110;20.964;2023-05-14T07:14:50;4.63;;;3.90;;
58015;SDS011;43809;52.110;20.964;2023-05-14T07:16:50;5.53;;;4.53;;
58015;SDS011;43809;52.110;20.964;2023-05-14T07:18:51;4.60;;;4.18;;
58015;SDS011;43809;52.110;20.964;2023-05-14T07:20:51;6.45;;;4.00;;
58015;SDS011;43809;52.110;20.964;2023-05-14T07:22:51;9.17;;;4.10;;
58015;SDS011;43809;52.110;20.964;2023-05-14T07:24:52;5.25;;;3.70;;
58015;SDS011;43809;52.110;20.964;2023-05-14T07:26:52;4.57;;;3.80;;
58015;SDS011;43809;52.110;20.964;2023-05-14T07:28:53;4.88;;;3.83;;
58015;SDS011;43809;52.110;20.964;2023-05-14T07:30:53;3.97;;;3.58;;
58015;SDS011;43809;52.110;20.964;2023-05-14T07:32:53;5.67;;;3.60;;
58015;SDS011;43809;52.110;20.964;2023-05-14T07:34:53;4.30;;;3.90;;
58015;SDS011;43809;52.110;20.964;2023-05-14T07:36:54;4.27;;;3.87;;
58015;SDS011;43809;52.110;20.964;2023-05-14T07:38:54;3.95;;;2.97;;
58015;SDS011;43809;52.110;20.964;2023-05-14T07:40:54;3.92;;;3.53;;
58015;SDS011;43809;52.110;20.964;2023-05-14T07:42:55;5.28;;;3.15;;
58015;SDS011;43809;52.110;20.964;2023-05-14T07:44:55;4.43;;;3.00;;
58015;SDS011;43809;52.110;20.964;2023-05-14T07:46:55;3.53;;;2.93;;
58015;SDS011;43809;52.110;20.964;2023-05-14T07:48:55;3.47;;;2.80;;
58015;SDS011;43809;52.110;20.964;2023-05-14T07:50:55;3.73;;;3.10;;
58015;SDS011;43809;52.110;20.964;2023-05-14T07:53:03;3.90;;;3.10;;
58015;SDS011;43809;52.110;20.964;2023-05-14T07:55:03;4.05;;;2.83;;
58015;SDS011;43809;52.110;20.964;2023-05-14T07:57:03;3.40;;;3.10;;
58015;SDS011;43809;52.110;20.964;2023-05-14T07:59:05;4.50;;;3.15;;
58015;SDS011;43809;52.110;20.964;2023-05-14T08:03:08;4.85;;;3.33;;
58015;SDS011;43809;52.110;20.964;2023-05-14T08:05:08;5.20;;;3.30;;
58015;SDS011;43809;52.110;20.964;2023-05-14T08:07:08;7.45;;;3.42;;
58015;SDS011;43809;52.110;20.964;2023-05-14T08:09:09;4.85;;;3.28;;
58015;SDS011;43809;52.110;20.964;2023-05-14T08:11:09;3.73;;;3.27;;
58015;SDS011;43809;52.110;20.964;2023-05-14T08:13:09;4.25;;;3.70;;
58015;SDS011;43809;52.110;20.964;2023-05-14T08:15:12;6.00;;;3.77;;
58015;SDS011;43809;52.110;20.964;2023-05-14T08:17:12;4.15;;;3.65;;
58015;SDS011;43809;52.110;20.964;2023-05-14T08:19:13;4.10;;;3.55;;
58015;SDS011;43809;52.110;20.964;2023-05-14T08:21:13;5.50;;;3.67;;
58015;SDS011;43809;52.110;20.964;2023-05-14T08:23:14;4.93;;;3.70;;
58015;SDS011;43809;52.110;20.964;2023-05-14T08:25:14;5.13;;;3.40;;
58015;SDS011;43809;52.110;20.964;2023-05-14T08:27:14;4.40;;;3.30;;
58015;SDS011;43809;52.110;20.964;2023-05-14T08:29:15;3.72;;;2.80;;
58015;SDS011;43809;52.110;20.964;2023-05-14T08:31:15;4.47;;;3.07;;
58015;SDS011;43809;52.110;20.964;2023-05-14T08:33:16;4.95;;;3.00;;
58015;SDS011;43809;52.110;20.964;2023-05-14T08:35:17;4.10;;;2.80;;
58015;SDS011;43809;52.110;20.964;2023-05-14T08:37:17;4.43;;;3.08;;
58015;SDS011;43809;52.110;20.964;2023-05-14T08:39:18;3.92;;;2.95;;
58015;SDS011;43809;52.110;20.964;2023-05-14T08:41:18;4.60;;;3.27;;
58015;SDS011;43809;52.110;20.964;2023-05-14T08:43:18;4.13;;;2.95;;
58015;SDS011;43809;52.110;20.964;2023-05-14T08:45:20;5.68;;;2.95;;
58015;SDS011;43809;52.110;20.964;2023-05-14T08:47:24;3.92;;;2.70;;
58015;SDS011;43809;52.110;20.964;2023-05-14T08:53:43;3.93;;;2.80;;
58015;SDS011;43809;52.110;20.964;2023-05-14T08:55:43;3.15;;;2.53;;
58015;SDS011;43809;52.110;20.964;2023-05-14T08:57:44;5.50;;;2.73;;
58015;SDS011;43809;52.110;20.964;2023-05-14T08:59:45;6.60;;;2.90;;
58015;SDS011;43809;52.110;20.964;2023-05-14T09:01:46;3.72;;;2.45;;
58015;SDS011;43809;52.110;20.964;2023-05-14T09:03:47;6.03;;;2.97;;
58015;SDS011;43809;52.110;20.964;2023-05-14T09:05:48;5.15;;;2.70;;
58015;SDS011;43809;52.110;20.964;2023-05-14T09:07:50;5.05;;;2.83;;
58015;SDS011;43809;52.110;20.964;2023-05-14T09:09:51;3.22;;;2.20;;
58015;SDS011;43809;52.110;20.964;2023-05-14T09:11:51;2.95;;;2.50;;
58015;SDS011;43809;52.110;20.964;2023-05-14T09:13:52;5.35;;;2.80;;
58015;SDS011;43809;52.110;20.964;2023-05-14T09:15:52;4.33;;;2.87;;
58015;SDS011;43809;52.110;20.964;2023-05-14T09:17:52;4.10;;;2.83;;
58015;SDS011;43809;52.110;20.964;2023-05-14T09:22:40;2.88;;;2.50;;
58015;SDS011;43809;52.110;20.964;2023-05-14T09:24:44;3.70;;;3.00;;
58015;SDS011;43809;52.110;20.964;2023-05-14T09:26:48;3.90;;;2.70;;
58015;SDS011;43809;52.110;20.964;2023-05-14T09:28:48;4.20;;;2.47;;
58015;SDS011;43809;52.110;20.964;2023-05-14T09:30:49;5.40;;;2.70;;
58015;SDS011;43809;52.110;20.964;2023-05-14T09:34:54;2.80;;;2.33;;
58015;SDS011;43809;52.110;20.964;2023-05-14T09:36:55;3.30;;;2.35;;
58015;SDS011;43809;52.110;20.964;2023-05-14T09:38:56;2.67;;;2.43;;
58015;SDS011;43809;52.110;20.964;2023-05-14T09:40:57;4.32;;;2.65;;
58015;SDS011;43809;52.110;20.964;2023-05-14T09:43:00;5.47;;;2.80;;
58015;SDS011;43809;52.110;20.964;2023-05-14T09:45:00;4.72;;;2.65;;
58015;SDS011;43809;52.110;20.964;2023-05-14T09:47:01;4.43;;;2.90;;
58015;SDS011;43809;52.110;20.964;2023-05-14T09:49:01;3.03;;;2.50;;
58015;SDS011;43809;52.110;20.964;2023-05-14T09:51:01;3.20;;;2.53;;
58015;SDS011;43809;52.110;20.964;2023-05-14T09:53:01;4.85;;;2.70;;
58015;SDS011;43809;52.110;20.964;2023-05-14T09:55:02;3.63;;;2.73;;
58015;SDS011;43809;52.110;20.964;2023-05-14T09:57:04;6.95;;;2.67;;
58015;SDS011;43809;52.110;20.964;2023-05-14T09:59:04;3.35;;;2.33;;
58015;SDS011;43809;52.110;20.964;2023-05-14T10:01:05;2.80;;;2.38;;
58015;SDS011;43809;52.110;20.964;2023-05-14T10:03:06;3.10;;;2.55;;
58015;SDS011;43809;52.110;20.964;2023-05-14T10:05:06;2.88;;;2.50;;
58015;SDS011;43809;52.110;20.964;2023-05-14T10:07:07;4.05;;;2.75;;
58015;SDS011;43809;52.110;20.964;2023-05-14T10:09:13;2.85;;;2.40;;
58015;SDS011;43809;52.110;20.964;2023-05-14T10:11:17;9.18;;;3.40;;
58015;SDS011;43809;52.110;20.964;2023-05-14T10:13:22;4.18;;;2.90;;
58015;SDS011;43809;52.110;20.964;2023-05-14T10:15:46;3.08;;;2.63;;
58015;SDS011;43809;52.110;20.964;2023-05-14T10:17:47;4.18;;;2.40;;
58015;SDS011;43809;52.110;20.964;2023-05-14T10:19:52;4.00;;;2.88;;
58015;SDS011;43809;52.110;20.964;2023-05-14T10:21:56;3.20;;;2.60;;
58015;SDS011;43809;52.110;20.964;2023-05-14T10:23:58;2.97;;;2.45;;
58015;SDS011;43809;52.110;20.964;2023-05-14T10:25:59;2.72;;;2.53;;
58015;SDS011;43809;52.110;20.964;2023-05-14T10:27:59;4.20;;;2.80;;
58015;SDS011;43809;52.110;20.964;2023-05-14T10:30:01;3.83;;;2.60;;
58015;SDS011;43809;52.110;20.964;2023-05-14T10:32:05;4.00;;;2.95;;
58015;SDS011;43809;52.110;20.964;2023-05-14T10:34:06;3.63;;;2.67;;
58015;SDS011;43809;52.110;20.964;2023-05-14T10:36:26;5.72;;;2.72;;
58015;SDS011;43809;52.110;20.964;2023-05-14T10:38:36;5.88;;;2.60;;
58015;SDS011;43809;52.110;20.964;2023-05-14T10:40:37;2.83;;;2.60;;
58015;SDS011;43809;52.110;20.964;2023-05-14T10:42:38;4.45;;;2.78;;
58015;SDS011;43809;52.110;20.964;2023-05-14T10:46:51;3.60;;;2.88;;
58015;SDS011;43809;52.110;20.964;2023-05-14T10:48:51;4.40;;;2.70;;
58015;SDS011;43809;52.110;20.964;2023-05-14T10:50:52;3.00;;;2.53;;
58015;SDS011;43809;52.110;20.964;2023-05-14T10:52:53;3.67;;;2.85;;
58015;SDS011;43809;52.110;20.964;2023-05-14T10:54:55;5.43;;;2.90;;
58015;SDS011;43809;52.110;20.964;2023-05-14T10:56:57;3.22;;;2.72;;
58015;SDS011;43809;52.110;20.964;2023-05-14T10:58:57;8.23;;;3.10;;
58015;SDS011;43809;52.110;20.964;2023-05-14T11:00:59;4.07;;;2.72;;
58015;SDS011;43809;52.110;20.964;2023-05-14T11:03:02;4.07;;;2.63;;
58015;SDS011;43809;52.110;20.964;2023-05-14T11:05:04;4.03;;;2.50;;
58015;SDS011;43809;52.110;20.964;2023-05-14T11:07:04;2.90;;;2.40;;
58015;SDS011;43809;52.110;20.964;2023-05-14T11:09:05;4.93;;;2.50;;
58015;SDS011;43809;52.110;20.964;2023-05-14T11:11:05;3.95;;;2.65;;
58015;SDS011;43809;52.110;20.964;2023-05-14T11:13:06;2.75;;;2.22;;
58015;SDS011;43809;52.110;20.964;2023-05-14T11:15:23;19.93;;;3.73;;
58015;SDS011;43809;52.110;20.964;2023-05-14T11:17:27;3.78;;;2.63;;
58015;SDS011;43809;52.110;20.964;2023-05-14T11:19:27;3.78;;;2.85;;
58015;SDS011;43809;52.110;20.964;2023-05-14T11:21:34;3.37;;;2.27;;
58015;SDS011;43809;52.110;20.964;2023-05-14T11:23:34;3.47;;;2.65;;
58015;SDS011;43809;52.110;20.964;2023-05-14T11:25:35;3.13;;;2.50;;
58015;SDS011;43809;52.110;20.964;2023-05-14T11:27:43;4.20;;;2.60;;
58015;SDS011;43809;52.110;20.964;2023-05-14T11:29:44;6.18;;;2.67;;
58015;SDS011;43809;52.110;20.964;2023-05-14T11:31:45;2.72;;;2.45;;
58015;SDS011;43809;52.110;20.964;2023-05-14T11:33:45;5.93;;;2.70;;
58015;SDS011;43809;52.110;20.964;2023-05-14T11:35:46;4.97;;;2.50;;
58015;SDS011;43809;52.110;20.964;2023-05-14T11:37:50;4.93;;;2.30;;
58015;SDS011;43809;52.110;20.964;2023-05-14T11:39:53;5.15;;;2.50;;
58015;SDS011;43809;52.110;20.964;2023-05-14T11:41:54;5.18;;;2.83;;
58015;SDS011;43809;52.110;20.964;2023-05-14T11:43:54;3.58;;;2.67;;
58015;SDS011;43809;52.110;20.964;2023-05-14T11:45:54;3.10;;;2.40;;
58015;SDS011;43809;52.110;20.964;2023-05-14T11:47:55;4.70;;;2.40;;
58015;SDS011;43809;52.110;20.964;2023-05-14T11:49:55;3.60;;;2.30;;
58015;SDS011;43809;52.110;20.964;2023-05-14T11:51:56;3.95;;;2.20;;
58015;SDS011;43809;52.110;20.964;2023-05-14T11:53:56;4.05;;;2.33;;
58015;SDS011;43809;52.110;20.964;2023-05-14T11:55:57;2.90;;;2.33;;
58015;SDS011;43809;52.110;20.964;2023-05-14T11:57:58;4.00;;;1.90;;
58015;SDS011;43809;52.110;20.964;2023-05-14T11:59:58;6.27;;;2.50;;
58015;SDS011;43809;52.110;20.964;2023-05-14T12:01:58;3.07;;;1.90;;
58015;SDS011;43809;52.110;20.964;2023-05-14T12:03:59;3.17;;;2.20;;
58015;SDS011;43809;52.110;20.964;2023-05-14T12:06:00;4.53;;;2.00;;
58015;SDS011;43809;52.110;20.964;2023-05-14T12:08:01;4.38;;;2.20;;
58015;SDS011;43809;52.110;20.964;2023-05-14T12:10:02;3.93;;;2.37;;
58015;SDS011;43809;52.110;20.964;2023-05-14T12:12:06;2.33;;;2.03;;
58015;SDS011;43809;52.110;20.964;2023-05-14T12:14:10;3.28;;;2.40;;
58015;SDS011;43809;52.110;20.964;2023-05-14T12:16:14;4.63;;;2.10;;
58015;SDS011;43809;52.110;20.964;2023-05-14T12:18:16;8.88;;;2.53;;
58015;SDS011;43809;52.110;20.964;2023-05-14T12:20:16;2.57;;;2.10;;
58015;SDS011;43809;52.110;20.964;2023-05-14T12:22:18;4.07;;;2.20;;
58015;SDS011;43809;52.110;20.964;2023-05-14T12:24:18;5.80;;;2.47;;
58015;SDS011;43809;52.110;20.964;2023-05-14T12:26:19;2.38;;;2.17;;
58015;SDS011;43809;52.110;20.964;2023-05-14T12:28:21;5.00;;;2.70;;
58015;SDS011;43809;52.110;20.964;2023-05-14T12:30:22;9.48;;;2.97;;
58015;SDS011;43809;52.110;20.964;2023-05-14T12:32:23;3.83;;;2.28;;
58015;SDS011;43809;52.110;20.964;2023-05-14T12:34:24;5.95;;;2.70;;
58015;SDS011;43809;52.110;20.964;2023-05-14T12:36:24;8.90;;;2.43;;
58015;SDS011;43809;52.110;20.964;2023-05-14T12:38:24;3.85;;;2.17;;
58015;SDS011;43809;52.110;20.964;2023-05-14T12:40:27;4.20;;;2.20;;
58015;SDS011;43809;52.110;20.964;2023-05-14T12:42:27;3.90;;;2.35;;